sensor_id;sensor_type;location;lat;lon;timestamp;P1;durP1;ratioP1;P2;durP2;ratioP2
5608;SDS011;2826;51.354;9.588;2022-08-19T00:01:19;18.20;;;14.23;;
5608;SDS011;2826;51.354;9.588;2022-08-19T00:03:47;20.70;;;16.07;;
5608;SDS011;2826;51.354;9.588;2022-08-19T00:06:14;18.50;;;14.67;;
5608;SDS011;2826;51.354;9.588;2022-08-19T00:08:43;19.87;;;14.67;;
5608;SDS011;2826;51.354;9.588;2022-08-19T00:11:10;20.07;;;14.83;;
5608;SDS011;2826;51.354;9.588;2022-08-19T00:13:38;18.93;;;14.70;;
5608;SDS011;2826;51.354;9.588;2022-08-19T00:16:05;18.50;;;13.43;;
5608;SDS011;2826;51.354;9.588;2022-08-19T00:18:32;28.53;;;13.77;;
5608;SDS011;2826;51.354;9.588;2022-08-19T00:20:59;17.80;;;13.70;;
5608;SDS011;2826;51.354;9.588;2022-08-19T00:23:26;21.47;;;14.20;;
5608;SDS011;2826;51.354;9.588;2022-08-19T00:25:55;19.30;;;13.60;;
5608;SDS011;2826;51.354;9.588;2022-08-19T00:28:21;18.90;;;14.10;;
5608;SDS011;2826;51.354;9.588;2022-08-19T00:30:48;23.87;;;13.50;;
5608;SDS011;2826;51.354;9.588;2022-08-19T00:33:17;20.63;;;14.30;;
5608;SDS011;2826;51.354;9.588;2022-08-19T00:35:44;21.10;;;14.17;;
5608;SDS011;2826;51.354;9.588;2022-08-19T00:38:10;20.80;;;12.90;;
5608;SDS011;2826;51.354;9.588;2022-08-19T00:40:37;21.50;;;13.43;;
5608;SDS011;2826;51.354;9.588;2022-08-19T00:43:09;16.50;;;13.73;;
5608;SDS011;2826;51.354;9.588;2022-08-19T00:45:36;21.20;;;14.60;;
5608;SDS011;2826;51.354;9.588;2022-08-19T00:48:03;25.03;;;14.50;;
5608;SDS011;2826;51.354;9.588;2022-08-19T00:50:30;23.27;;;13.57;;
5608;SDS011;2826;51.354;9.588;2022-08-19T00:52:58;23.03;;;13.57;;
5608;SDS011;2826;51.354;9.588;2022-08-19T00:55:26;19.10;;;13.43;;
5608;SDS011;2826;51.354;9.588;2022-08-19T00:57:55;21.67;;;14.20;;
5608;SDS011;2826;51.354;9.588;2022-08-19T01:00:25;15.17;;;13.20;;
5608;SDS011;2826;51.354;9.588;2022-08-19T01:02:54;19.23;;;12.70;;
5608;SDS011;2826;51.354;9.588;2022-08-19T01:05:22;18.87;;;12.83;;
5608;SDS011;2826;51.354;9.588;2022-08-19T01:07:53;14.70;;;12.90;;
5608;SDS011;2826;51.354;9.588;2022-08-19T01:10:21;21.47;;;12.97;;
5608;SDS011;2826;51.354;9.588;2022-08-19T01:12:51;16.17;;;13.63;;
5608;SDS011;2826;51.354;9.588;2022-08-19T01:15:20;18.43;;;13.70;;
5608;SDS011;2826;51.354;9.588;2022-08-19T01:17:52;18.80;;;13.53;;
5608;SDS011;2826;51.354;9.588;2022-08-19T01:20:21;18.10;;;13.07;;
5608;SDS011;2826;51.354;9.588;2022-08-19T01:22:52;22.20;;;14.23;;
5608;SDS011;2826;51.354;9.588;2022-08-19T01:25:22;23.73;;;13.77;;
5608;SDS011;2826;51.354;9.588;2022-08-19T01:27:53;20.27;;;14.33;;
5608;SDS011;2826;51.354;9.588;2022-08-19T01:30:21;16.70;;;13.50;;
5608;SDS011;2826;51.354;9.588;2022-08-19T01:32:50;22.63;;;14.03;;
5608;SDS011;2826;51.354;9.588;2022-08-19T01:35:19;19.73;;;14.10;;
5608;SDS011;2826;51.354;9.588;2022-08-19T01:37:49;27.57;;;13.80;;
5608;SDS011;2826;51.354;9.588;2022-08-19T01:40:20;20.83;;;14.20;;
5608;SDS011;2826;51.354;9.588;2022-08-19T01:42:48;20.67;;;13.97;;
5608;SDS011;2826;51.354;9.588;2022-08-19T01:45:15;15.87;;;13.10;;
5608;SDS011;2826;51.354;9.588;2022-08-19T01:47:42;19.73;;;14.00;;
5608;SDS011;2826;51.354;9.588;2022-08-19T01:50:09;19.87;;;13.10;;
5608;SDS011;2826;51.354;9.588;2022-08-19T01:52:39;19.77;;;14.00;;
5608;SDS011;2826;51.354;9.588;2022-08-19T01:55:08;18.77;;;12.70;;
5608;SDS011;2826;51.354;9.588;2022-08-19T01:57:37;16.27;;;13.23;;
5608;SDS011;2826;51.354;9.588;2022-08-19T02:00:08;18.20;;;13.40;;
5608;SDS011;2826;51.354;9.588;2022-08-19T02:02:37;20.43;;;14.33;;
5608;SDS011;2826;51.354;9.588;2022-08-19T02:05:04;20.00;;;13.57;;
5608;SDS011;2826;51.354;9.588;2022-08-19T02:07:33;19.60;;;13.50;;
5608;SDS011;2826;51.354;9.588;2022-08-19T02:10:01;19.03;;;13.80;;
5608;SDS011;2826;51.354;9.588;2022-08-19T02:12:28;20.47;;;15.70;;
5608;SDS011;2826;51.354;9.588;2022-08-19T02:14:57;23.73;;;14.93;;
5608;SDS011;2826;51.354;9.588;2022-08-19T02:17:26;21.63;;;14.80;;
5608;SDS011;2826;51.354;9.588;2022-08-19T02:19:53;19.70;;;14.70;;
5608;SDS011;2826;51.354;9.588;2022-08-19T02:22:20;23.30;;;15.07;;
5608;SDS011;2826;51.354;9.588;2022-08-19T02:24:47;21.60;;;14.67;;
5608;SDS011;2826;51.354;9.588;2022-08-19T02:27:14;29.07;;;15.50;;
5608;SDS011;2826;51.354;9.588;2022-08-19T02:29:42;22.10;;;14.57;;
5608;SDS011;2826;51.354;9.588;2022-08-19T02:32:10;16.27;;;13.80;;
5608;SDS011;2826;51.354;9.588;2022-08-19T02:34:37;20.23;;;14.57;;
5608;SDS011;2826;51.354;9.588;2022-08-19T02:37:04;22.07;;;15.30;;
5608;SDS011;2826;51.354;9.588;2022-08-19T02:39:30;19.30;;;14.20;;
5608;SDS011;2826;51.354;9.588;2022-08-19T02:41:56;19.10;;;13.70;;
5608;SDS011;2826;51.354;9.588;2022-08-19T02:44:25;21.50;;;13.80;;
5608;SDS011;2826;51.354;9.588;2022-08-19T02:46:51;36.70;;;14.63;;
5608;SDS011;2826;51.354;9.588;2022-08-19T02:49:19;18.00;;;13.83;;
5608;SDS011;2826;51.354;9.588;2022-08-19T02:51:46;24.97;;;14.27;;
5608;SDS011;2826;51.354;9.588;2022-08-19T02:54:13;24.63;;;13.97;;
5608;SDS011;2826;51.354;9.588;2022-08-19T02:56:41;24.67;;;14.50;;
5608;SDS011;2826;51.354;9.588;2022-08-19T02:59:09;23.17;;;14.60;;
5608;SDS011;2826;51.354;9.588;2022-08-19T03:01:37;21.77;;;13.70;;
5608;SDS011;2826;51.354;9.588;2022-08-19T03:04:05;21.57;;;13.23;;
5608;SDS011;2826;51.354;9.588;2022-08-19T03:06:37;17.40;;;12.70;;
5608;SDS011;2826;51.354;9.588;2022-08-19T03:09:05;18.60;;;12.17;;
5608;SDS011;2826;51.354;9.588;2022-08-19T03:11:32;19.43;;;13.23;;
5608;SDS011;2826;51.354;9.588;2022-08-19T03:13:59;21.73;;;12.07;;
5608;SDS011;2826;51.354;9.588;2022-08-19T03:16:28;15.20;;;11.67;;
5608;SDS011;2826;51.354;9.588;2022-08-19T03:18:56;15.03;;;11.00;;
5608;SDS011;2826;51.354;9.588;2022-08-19T03:21:25;19.37;;;11.60;;
5608;SDS011;2826;51.354;9.588;2022-08-19T03:23:55;17.53;;;10.23;;
5608;SDS011;2826;51.354;9.588;2022-08-19T03:26:23;18.47;;;10.40;;
5608;SDS011;2826;51.354;9.588;2022-08-19T03:28:51;14.53;;;10.37;;
5608;SDS011;2826;51.354;9.588;2022-08-19T03:31:19;17.80;;;11.67;;
5608;SDS011;2826;51.354;9.588;2022-08-19T03:33:48;17.57;;;9.90;;
5608;SDS011;2826;51.354;9.588;2022-08-19T03:36:16;14.50;;;10.70;;
5608;SDS011;2826;51.354;9.588;2022-08-19T03:38:47;13.43;;;10.27;;
5608;SDS011;2826;51.354;9.588;2022-08-19T03:41:19;18.10;;;10.50;;
5608;SDS011;2826;51.354;9.588;2022-08-19T03:43:47;17.77;;;11.83;;
5608;SDS011;2826;51.354;9.588;2022-08-19T03:46:15;16.40;;;11.30;;
5608;SDS011;2826;51.354;9.588;2022-08-19T03:48:46;24.40;;;11.37;;
5608;SDS011;2826;51.354;9.588;2022-08-19T03:51:17;18.87;;;12.43;;
5608;SDS011;2826;51.354;9.588;2022-08-19T03:53:46;17.50;;;12.30;;
5608;SDS011;2826;51.354;9.588;2022-08-19T03:56:13;17.83;;;10.90;;
5608;SDS011;2826;51.354;9.588;2022-08-19T03:58:43;16.67;;;13.77;;
5608;SDS011;2826;51.354;9.588;2022-08-19T04:01:11;20.20;;;12.57;;
5608;SDS011;2826;51.354;9.588;2022-08-19T04:03:40;17.20;;;12.00;;
5608;SDS011;2826;51.354;9.588;2022-08-19T04:06:10;18.40;;;12.53;;
5608;SDS011;2826;51.354;9.588;2022-08-19T04:08:38;22.00;;;11.57;;
5608;SDS011;2826;51.354;9.588;2022-08-19T04:11:06;22.43;;;12.57;;
5608;SDS011;2826;51.354;9.588;2022-08-19T04:13:33;26.93;;;13.80;;
5608;SDS011;2826;51.354;9.588;2022-08-19T04:16:02;24.10;;;12.97;;
5608;SDS011;2826;51.354;9.588;2022-08-19T04:18:31;17.10;;;12.47;;
5608;SDS011;2826;51.354;9.588;2022-08-19T04:20:58;17.07;;;13.10;;
5608;SDS011;2826;51.354;9.588;2022-08-19T04:23:25;21.27;;;12.97;;
5608;SDS011;2826;51.354;9.588;2022-08-19T04:25:53;21.30;;;13.33;;
5608;SDS011;2826;51.354;9.588;2022-08-19T04:28:21;21.50;;;13.10;;
5608;SDS011;2826;51.354;9.588;2022-08-19T04:30:49;19.40;;;13.90;;
5608;SDS011;2826;51.354;9.588;2022-08-19T04:33:19;21.13;;;13.90;;
5608;SDS011;2826;51.354;9.588;2022-08-19T04:35:49;20.70;;;13.23;;
5608;SDS011;2826;51.354;9.588;2022-08-19T04:38:18;22.70;;;12.70;;
5608;SDS011;2826;51.354;9.588;2022-08-19T04:40:48;14.80;;;11.80;;
5608;SDS011;2826;51.354;9.588;2022-08-19T04:43:34;19.97;;;12.53;;
5608;SDS011;2826;51.354;9.588;2022-08-19T04:46:04;18.53;;;12.47;;
5608;SDS011;2826;51.354;9.588;2022-08-19T04:48:32;27.30;;;13.80;;
5608;SDS011;2826;51.354;9.588;2022-08-19T04:50:59;18.30;;;11.80;;
5608;SDS011;2826;51.354;9.588;2022-08-19T04:53:26;18.77;;;12.80;;
5608;SDS011;2826;51.354;9.588;2022-08-19T04:55:54;22.07;;;12.93;;
5608;SDS011;2826;51.354;9.588;2022-08-19T04:58:21;21.20;;;14.37;;
5608;SDS011;2826;51.354;9.588;2022-08-19T05:00:48;20.70;;;13.30;;
5608;SDS011;2826;51.354;9.588;2022-08-19T05:03:15;17.43;;;13.03;;
5608;SDS011;2826;51.354;9.588;2022-08-19T05:05:44;23.33;;;13.53;;
5608;SDS011;2826;51.354;9.588;2022-08-19T05:08:14;25.67;;;13.77;;
5608;SDS011;2826;51.354;9.588;2022-08-19T05:10:45;21.67;;;13.67;;
5608;SDS011;2826;51.354;9.588;2022-08-19T05:13:13;17.83;;;13.63;;
5608;SDS011;2826;51.354;9.588;2022-08-19T05:15:41;30.00;;;13.90;;
5608;SDS011;2826;51.354;9.588;2022-08-19T05:18:08;19.70;;;14.10;;
5608;SDS011;2826;51.354;9.588;2022-08-19T05:20:54;19.60;;;13.10;;
5608;SDS011;2826;51.354;9.588;2022-08-19T05:23:39;19.40;;;12.70;;
5608;SDS011;2826;51.354;9.588;2022-08-19T05:26:06;25.30;;;13.70;;
5608;SDS011;2826;51.354;9.588;2022-08-19T05:28:34;20.20;;;13.00;;
5608;SDS011;2826;51.354;9.588;2022-08-19T05:31:01;16.07;;;12.23;;
5608;SDS011;2826;51.354;9.588;2022-08-19T05:33:27;19.37;;;13.23;;
5608;SDS011;2826;51.354;9.588;2022-08-19T05:35:55;23.60;;;12.60;;
5608;SDS011;2826;51.354;9.588;2022-08-19T05:38:22;20.63;;;12.90;;
5608;SDS011;2826;51.354;9.588;2022-08-19T05:40:48;19.00;;;12.40;;
5608;SDS011;2826;51.354;9.588;2022-08-19T05:43:16;17.30;;;11.80;;
5608;SDS011;2826;51.354;9.588;2022-08-19T05:45:43;18.70;;;11.33;;
5608;SDS011;2826;51.354;9.588;2022-08-19T05:48:10;20.23;;;12.30;;
5608;SDS011;2826;51.354;9.588;2022-08-19T05:50:38;21.10;;;11.43;;
5608;SDS011;2826;51.354;9.588;2022-08-19T05:53:06;17.23;;;11.87;;
5608;SDS011;2826;51.354;9.588;2022-08-19T05:55:34;22.37;;;12.07;;
5608;SDS011;2826;51.354;9.588;2022-08-19T05:58:02;15.97;;;11.53;;
5608;SDS011;2826;51.354;9.588;2022-08-19T06:00:28;20.37;;;11.97;;
5608;SDS011;2826;51.354;9.588;2022-08-19T06:02:56;18.30;;;11.00;;
5608;SDS011;2826;51.354;9.588;2022-08-19T06:05:28;19.70;;;11.13;;
5608;SDS011;2826;51.354;9.588;2022-08-19T06:07:55;19.50;;;11.17;;
5608;SDS011;2826;51.354;9.588;2022-08-19T06:10:23;20.37;;;12.63;;
5608;SDS011;2826;51.354;9.588;2022-08-19T06:12:50;15.00;;;9.67;;
5608;SDS011;2826;51.354;9.588;2022-08-19T06:15:17;17.77;;;11.00;;
5608;SDS011;2826;51.354;9.588;2022-08-19T06:17:43;19.53;;;11.23;;
5608;SDS011;2826;51.354;9.588;2022-08-19T06:20:11;20.27;;;11.07;;
5608;SDS011;2826;51.354;9.588;2022-08-19T06:22:40;17.07;;;9.33;;
5608;SDS011;2826;51.354;9.588;2022-08-19T06:25:08;17.90;;;9.77;;
5608;SDS011;2826;51.354;9.588;2022-08-19T06:27:37;13.43;;;9.10;;
5608;SDS011;2826;51.354;9.588;2022-08-19T06:30:04;15.47;;;8.90;;
5608;SDS011;2826;51.354;9.588;2022-08-19T06:32:31;14.23;;;9.13;;
5608;SDS011;2826;51.354;9.588;2022-08-19T06:34:58;11.40;;;7.60;;
5608;SDS011;2826;51.354;9.588;2022-08-19T06:37:25;13.10;;;7.87;;
5608;SDS011;2826;51.354;9.588;2022-08-19T06:39:52;13.33;;;7.40;;
5608;SDS011;2826;51.354;9.588;2022-08-19T06:42:18;13.20;;;7.27;;
5608;SDS011;2826;51.354;9.588;2022-08-19T06:44:46;7.40;;;6.60;;
5608;SDS011;2826;51.354;9.588;2022-08-19T06:47:15;12.87;;;6.30;;
5608;SDS011;2826;51.354;9.588;2022-08-19T06:49:44;8.80;;;5.73;;
5608;SDS011;2826;51.354;9.588;2022-08-19T06:52:11;7.27;;;5.47;;
5608;SDS011;2826;51.354;9.588;2022-08-19T06:54:39;9.37;;;5.63;;
5608;SDS011;2826;51.354;9.588;2022-08-19T06:57:07;7.63;;;6.10;;
5608;SDS011;2826;51.354;9.588;2022-08-19T06:59:38;9.43;;;6.00;;
5608;SDS011;2826;51.354;9.588;2022-08-19T07:02:07;8.63;;;5.90;;
5608;SDS011;2826;51.354;9.588;2022-08-19T07:04:35;8.97;;;5.20;;
5608;SDS011;2826;51.354;9.588;2022-08-19T07:07:05;8.10;;;5.17;;
5608;SDS011;2826;51.354;9.588;2022-08-19T07:09:35;5.53;;;4.90;;
5608;SDS011;2826;51.354;9.588;2022-08-19T07:12:04;7.53;;;4.37;;
5608;SDS011;2826;51.354;9.588;2022-08-19T07:14:33;8.80;;;4.70;;
5608;SDS011;2826;51.354;9.588;2022-08-19T07:17:03;5.67;;;4.87;;
5608;SDS011;2826;51.354;9.588;2022-08-19T07:19:33;5.73;;;5.10;;
5608;SDS011;2826;51.354;9.588;2022-08-19T07:22:01;8.57;;;5.63;;
5608;SDS011;2826;51.354;9.588;2022-08-19T07:24:30;7.73;;;5.30;;
5608;SDS011;2826;51.354;9.588;2022-08-19T07:26:58;6.30;;;5.67;;
5608;SDS011;2826;51.354;9.588;2022-08-19T07:29:28;8.00;;;5.30;;
5608;SDS011;2826;51.354;9.588;2022-08-19T07:31:59;6.90;;;5.43;;
5608;SDS011;2826;51.354;9.588;2022-08-19T07:34:27;6.27;;;5.63;;
5608;SDS011;2826;51.354;9.588;2022-08-19T07:36:56;8.70;;;6.20;;
5608;SDS011;2826;51.354;9.588;2022-08-19T07:39:24;9.33;;;5.83;;
5608;SDS011;2826;51.354;9.588;2022-08-19T07:41:53;8.17;;;5.60;;
5608;SDS011;2826;51.354;9.588;2022-08-19T07:44:20;10.30;;;6.33;;
5608;SDS011;2826;51.354;9.588;2022-08-19T07:46:48;8.40;;;5.70;;
5608;SDS011;2826;51.354;9.588;2022-08-19T07:49:18;8.60;;;5.30;;
5608;SDS011;2826;51.354;9.588;2022-08-19T07:51:46;10.57;;;6.43;;
5608;SDS011;2826;51.354;9.588;2022-08-19T07:54:16;11.63;;;6.10;;
5608;SDS011;2826;51.354;9.588;2022-08-19T07:56:43;8.03;;;6.13;;
5608;SDS011;2826;51.354;9.588;2022-08-19T07:59:10;8.03;;;5.87;;
5608;SDS011;2826;51.354;9.588;2022-08-19T08:01:38;10.93;;;6.17;;
5608;SDS011;2826;51.354;9.588;2022-08-19T08:04:06;8.03;;;5.80;;
5608;SDS011;2826;51.354;9.588;2022-08-19T08:06:53;11.50;;;6.17;;
5608;SDS011;2826;51.354;9.588;2022-08-19T08:09:40;12.50;;;7.33;;
5608;SDS011;2826;51.354;9.588;2022-08-19T08:12:10;8.60;;;6.33;;
5608;SDS011;2826;51.354;9.588;2022-08-19T08:14:40;10.13;;;6.00;;
5608;SDS011;2826;51.354;9.588;2022-08-19T08:17:09;7.13;;;6.30;;
5608;SDS011;2826;51.354;9.588;2022-08-19T08:19:36;7.10;;;5.67;;
5608;SDS011;2826;51.354;9.588;2022-08-19T08:22:06;9.40;;;6.13;;
5608;SDS011;2826;51.354;9.588;2022-08-19T08:24:55;7.63;;;6.00;;
5608;SDS011;2826;51.354;9.588;2022-08-19T08:27:23;12.57;;;7.00;;
5608;SDS011;2826;51.354;9.588;2022-08-19T08:29:51;8.17;;;6.33;;
5608;SDS011;2826;51.354;9.588;2022-08-19T08:32:17;13.27;;;6.47;;
5608;SDS011;2826;51.354;9.588;2022-08-19T08:34:44;8.70;;;5.17;;
5608;SDS011;2826;51.354;9.588;2022-08-19T08:37:11;7.73;;;5.50;;
5608;SDS011;2826;51.354;9.588;2022-08-19T08:39:37;10.10;;;6.10;;
5608;SDS011;2826;51.354;9.588;2022-08-19T08:42:07;10.63;;;5.63;;
5608;SDS011;2826;51.354;9.588;2022-08-19T08:44:39;6.50;;;5.23;;
5608;SDS011;2826;51.354;9.588;2022-08-19T08:47:16;16.40;;;5.33;;
5608;SDS011;2826;51.354;9.588;2022-08-19T08:49:46;7.10;;;6.07;;
5608;SDS011;2826;51.354;9.588;2022-08-19T08:52:18;6.70;;;6.00;;
5608;SDS011;2826;51.354;9.588;2022-08-19T08:54:49;7.00;;;4.80;;
5608;SDS011;2826;51.354;9.588;2022-08-19T08:57:21;7.43;;;6.30;;
5608;SDS011;2826;51.354;9.588;2022-08-19T08:59:53;6.60;;;5.90;;
5608;SDS011;2826;51.354;9.588;2022-08-19T09:02:23;9.47;;;5.07;;
5608;SDS011;2826;51.354;9.588;2022-08-19T09:04:51;5.20;;;4.70;;
5608;SDS011;2826;51.354;9.588;2022-08-19T09:07:26;10.60;;;5.20;;
5608;SDS011;2826;51.354;9.588;2022-08-19T09:10:07;6.93;;;4.40;;
5608;SDS011;2826;51.354;9.588;2022-08-19T09:12:44;9.10;;;4.90;;
5608;SDS011;2826;51.354;9.588;2022-08-19T09:15:22;6.10;;;4.83;;
5608;SDS011;2826;51.354;9.588;2022-08-19T09:17:58;8.03;;;4.97;;
5608;SDS011;2826;51.354;9.588;2022-08-19T09:20:27;5.30;;;4.50;;
5608;SDS011;2826;51.354;9.588;2022-08-19T09:22:53;4.83;;;4.40;;
5608;SDS011;2826;51.354;9.588;2022-08-19T09:25:21;4.27;;;3.87;;
5608;SDS011;2826;51.354;9.588;2022-08-19T09:27:51;4.53;;;4.13;;
5608;SDS011;2826;51.354;9.588;2022-08-19T09:30:20;5.60;;;4.40;;
5608;SDS011;2826;51.354;9.588;2022-08-19T09:32:48;4.80;;;4.30;;
5608;SDS011;2826;51.354;9.588;2022-08-19T09:35:18;6.07;;;4.17;;
5608;SDS011;2826;51.354;9.588;2022-08-19T09:37:47;4.57;;;4.10;;
5608;SDS011;2826;51.354;9.588;2022-08-19T09:40:15;8.20;;;4.63;;
5608;SDS011;2826;51.354;9.588;2022-08-19T09:42:43;7.47;;;4.40;;
5608;SDS011;2826;51.354;9.588;2022-08-19T09:45:13;4.70;;;4.27;;
5608;SDS011;2826;51.354;9.588;2022-08-19T09:47:41;6.07;;;4.13;;
5608;SDS011;2826;51.354;9.588;2022-08-19T09:50:09;9.90;;;4.30;;
5608;SDS011;2826;51.354;9.588;2022-08-19T09:52:38;4.27;;;3.93;;
5608;SDS011;2826;51.354;9.588;2022-08-19T09:55:08;4.63;;;4.10;;
5608;SDS011;2826;51.354;9.588;2022-08-19T09:57:36;5.90;;;4.00;;
5608;SDS011;2826;51.354;9.588;2022-08-19T10:00:04;11.80;;;4.57;;
5608;SDS011;2826;51.354;9.588;2022-08-19T10:02:35;4.57;;;3.83;;
5608;SDS011;2826;51.354;9.588;2022-08-19T10:05:02;5.30;;;4.40;;
5608;SDS011;2826;51.354;9.588;2022-08-19T10:07:47;5.33;;;3.80;;
5608;SDS011;2826;51.354;9.588;2022-08-19T10:10:13;5.13;;;4.33;;
5608;SDS011;2826;51.354;9.588;2022-08-19T10:12:40;4.23;;;3.83;;
5608;SDS011;2826;51.354;9.588;2022-08-19T10:15:08;6.10;;;4.30;;
5608;SDS011;2826;51.354;9.588;2022-08-19T10:17:36;5.97;;;3.83;;
5608;SDS011;2826;51.354;9.588;2022-08-19T10:20:04;4.30;;;3.87;;
5608;SDS011;2826;51.354;9.588;2022-08-19T10:22:31;4.67;;;4.07;;
5608;SDS011;2826;51.354;9.588;2022-08-19T10:25:01;10.60;;;4.40;;
5608;SDS011;2826;51.354;9.588;2022-08-19T10:27:28;5.20;;;4.10;;
5608;SDS011;2826;51.354;9.588;2022-08-19T10:29:56;6.53;;;4.60;;
5608;SDS011;2826;51.354;9.588;2022-08-19T10:32:22;5.23;;;4.20;;
5608;SDS011;2826;51.354;9.588;2022-08-19T10:34:51;7.10;;;4.50;;
5608;SDS011;2826;51.354;9.588;2022-08-19T10:37:19;4.27;;;3.87;;
5608;SDS011;2826;51.354;9.588;2022-08-19T10:39:46;9.23;;;4.97;;
5608;SDS011;2826;51.354;9.588;2022-08-19T10:42:13;4.20;;;3.80;;
5608;SDS011;2826;51.354;9.588;2022-08-19T10:44:41;3.53;;;3.20;;
5608;SDS011;2826;51.354;9.588;2022-08-19T10:47:08;5.80;;;4.30;;
5608;SDS011;2826;51.354;9.588;2022-08-19T10:49:35;5.13;;;4.63;;
5608;SDS011;2826;51.354;9.588;2022-08-19T10:52:23;4.83;;;4.37;;
5608;SDS011;2826;51.354;9.588;2022-08-19T10:55:02;5.30;;;4.50;;
5608;SDS011;2826;51.354;9.588;2022-08-19T10:57:47;7.90;;;4.00;;
5608;SDS011;2826;51.354;9.588;2022-08-19T11:00:14;8.17;;;3.90;;
5608;SDS011;2826;51.354;9.588;2022-08-19T11:02:41;9.10;;;4.33;;
5608;SDS011;2826;51.354;9.588;2022-08-19T11:05:08;5.33;;;4.47;;
5608;SDS011;2826;51.354;9.588;2022-08-19T11:07:38;12.30;;;4.93;;
5608;SDS011;2826;51.354;9.588;2022-08-19T11:10:06;5.20;;;3.90;;
5608;SDS011;2826;51.354;9.588;2022-08-19T11:12:36;8.10;;;3.70;;
5608;SDS011;2826;51.354;9.588;2022-08-19T11:15:05;4.10;;;3.70;;
5608;SDS011;2826;51.354;9.588;2022-08-19T11:17:33;4.33;;;3.93;;
5608;SDS011;2826;51.354;9.588;2022-08-19T11:20:01;5.20;;;3.43;;
5608;SDS011;2826;51.354;9.588;2022-08-19T11:22:30;5.20;;;3.83;;
5608;SDS011;2826;51.354;9.588;2022-08-19T11:24:58;4.60;;;4.00;;
5608;SDS011;2826;51.354;9.588;2022-08-19T11:27:25;26.00;;;4.00;;
5608;SDS011;2826;51.354;9.588;2022-08-19T11:29:54;4.40;;;3.50;;
5608;SDS011;2826;51.354;9.588;2022-08-19T11:32:21;7.93;;;3.30;;
5608;SDS011;2826;51.354;9.588;2022-08-19T11:34:48;4.20;;;3.40;;
5608;SDS011;2826;51.354;9.588;2022-08-19T11:37:14;4.40;;;3.47;;
5608;SDS011;2826;51.354;9.588;2022-08-19T11:39:41;3.87;;;3.20;;
5608;SDS011;2826;51.354;9.588;2022-08-19T11:42:09;4.80;;;3.20;;
5608;SDS011;2826;51.354;9.588;2022-08-19T11:44:54;8.30;;;3.63;;
5608;SDS011;2826;51.354;9.588;2022-08-19T11:47:20;8.40;;;4.23;;
5608;SDS011;2826;51.354;9.588;2022-08-19T11:49:47;4.23;;;3.33;;
5608;SDS011;2826;51.354;9.588;2022-08-19T11:52:14;4.67;;;3.53;;
5608;SDS011;2826;51.354;9.588;2022-08-19T11:54:41;4.30;;;3.50;;
5608;SDS011;2826;51.354;9.588;2022-08-19T11:57:09;4.37;;;3.63;;
5608;SDS011;2826;51.354;9.588;2022-08-19T11:59:36;4.70;;;3.13;;
5608;SDS011;2826;51.354;9.588;2022-08-19T12:02:03;5.47;;;3.13;;
5608;SDS011;2826;51.354;9.588;2022-08-19T12:04:30;6.37;;;3.63;;
5608;SDS011;2826;51.354;9.588;2022-08-19T12:06:56;6.60;;;4.00;;
5608;SDS011;2826;51.354;9.588;2022-08-19T12:09:23;5.33;;;3.90;;
5608;SDS011;2826;51.354;9.588;2022-08-19T12:11:50;9.90;;;3.90;;
5608;SDS011;2826;51.354;9.588;2022-08-19T12:14:19;3.97;;;2.77;;
5608;SDS011;2826;51.354;9.588;2022-08-19T12:16:45;4.43;;;3.30;;
5608;SDS011;2826;51.354;9.588;2022-08-19T12:19:12;3.60;;;3.30;;
5608;SDS011;2826;51.354;9.588;2022-08-19T12:21:39;4.83;;;3.53;;
5608;SDS011;2826;51.354;9.588;2022-08-19T12:24:06;10.27;;;3.60;;
5608;SDS011;2826;51.354;9.588;2022-08-19T12:26:33;4.10;;;3.70;;
5608;SDS011;2826;51.354;9.588;2022-08-19T12:29:01;4.40;;;3.43;;
5608;SDS011;2826;51.354;9.588;2022-08-19T12:31:31;5.50;;;3.50;;
5608;SDS011;2826;51.354;9.588;2022-08-19T12:33:58;3.60;;;3.30;;
5608;SDS011;2826;51.354;9.588;2022-08-19T12:36:27;4.50;;;2.67;;
5608;SDS011;2826;51.354;9.588;2022-08-19T12:38:54;9.37;;;3.30;;
5608;SDS011;2826;51.354;9.588;2022-08-19T12:41:24;6.03;;;3.37;;
5608;SDS011;2826;51.354;9.588;2022-08-19T12:43:50;3.90;;;3.50;;
5608;SDS011;2826;51.354;9.588;2022-08-19T12:46:18;5.37;;;3.10;;
5608;SDS011;2826;51.354;9.588;2022-08-19T12:48:47;3.40;;;3.10;;
5608;SDS011;2826;51.354;9.588;2022-08-19T12:51:14;5.20;;;3.57;;
5608;SDS011;2826;51.354;9.588;2022-08-19T12:53:43;3.30;;;2.80;;
5608;SDS011;2826;51.354;9.588;2022-08-19T12:56:10;6.53;;;3.10;;
5608;SDS011;2826;51.354;9.588;2022-08-19T12:58:39;6.93;;;3.00;;
5608;SDS011;2826;51.354;9.588;2022-08-19T13:01:07;4.13;;;2.93;;
5608;SDS011;2826;51.354;9.588;2022-08-19T13:03:36;3.53;;;3.00;;
5608;SDS011;2826;51.354;9.588;2022-08-19T13:06:04;5.20;;;3.30;;
5608;SDS011;2826;51.354;9.588;2022-08-19T13:08:31;4.23;;;2.93;;
5608;SDS011;2826;51.354;9.588;2022-08-19T13:10:57;3.60;;;3.00;;
5608;SDS011;2826;51.354;9.588;2022-08-19T13:13:33;6.30;;;3.30;;
5608;SDS011;2826;51.354;9.588;2022-08-19T13:16:00;4.90;;;3.30;;
5608;SDS011;2826;51.354;9.588;2022-08-19T13:18:28;7.87;;;2.83;;
5608;SDS011;2826;51.354;9.588;2022-08-19T13:20:55;6.00;;;3.20;;
5608;SDS011;2826;51.354;9.588;2022-08-19T13:23:23;3.00;;;2.70;;
5608;SDS011;2826;51.354;9.588;2022-08-19T13:25:55;4.83;;;3.20;;
5608;SDS011;2826;51.354;9.588;2022-08-19T13:28:22;4.87;;;2.90;;
5608;SDS011;2826;51.354;9.588;2022-08-19T13:30:49;3.00;;;2.47;;
5608;SDS011;2826;51.354;9.588;2022-08-19T13:33:34;7.20;;;3.20;;
5608;SDS011;2826;51.354;9.588;2022-08-19T13:36:00;3.10;;;2.80;;
5608;SDS011;2826;51.354;9.588;2022-08-19T13:38:28;3.37;;;3.07;;
5608;SDS011;2826;51.354;9.588;2022-08-19T13:40:55;2.83;;;2.63;;
5608;SDS011;2826;51.354;9.588;2022-08-19T13:43:23;3.07;;;2.77;;
5608;SDS011;2826;51.354;9.588;2022-08-19T13:45:52;5.33;;;3.10;;
5608;SDS011;2826;51.354;9.588;2022-08-19T13:48:21;2.70;;;2.50;;
5608;SDS011;2826;51.354;9.588;2022-08-19T13:50:48;4.23;;;2.80;;
5608;SDS011;2826;51.354;9.588;2022-08-19T13:53:15;3.67;;;3.20;;
5608;SDS011;2826;51.354;9.588;2022-08-19T13:55:44;2.90;;;2.70;;
5608;SDS011;2826;51.354;9.588;2022-08-19T13:58:11;2.70;;;2.50;;
5608;SDS011;2826;51.354;9.588;2022-08-19T14:00:39;19.93;;;2.63;;
5608;SDS011;2826;51.354;9.588;2022-08-19T14:03:10;5.17;;;2.60;;
5608;SDS011;2826;51.354;9.588;2022-08-19T14:05:37;3.90;;;2.43;;
5608;SDS011;2826;51.354;9.588;2022-08-19T14:08:04;5.10;;;2.20;;
5608;SDS011;2826;51.354;9.588;2022-08-19T14:10:31;2.90;;;2.30;;
5608;SDS011;2826;51.354;9.588;2022-08-19T14:13:00;6.43;;;2.60;;
5608;SDS011;2826;51.354;9.588;2022-08-19T14:15:29;5.60;;;3.10;;
5608;SDS011;2826;51.354;9.588;2022-08-19T14:17:57;3.50;;;2.57;;
5608;SDS011;2826;51.354;9.588;2022-08-19T14:20:25;4.30;;;2.53;;
5608;SDS011;2826;51.354;9.588;2022-08-19T14:22:52;4.13;;;2.27;;
5608;SDS011;2826;51.354;9.588;2022-08-19T14:25:23;2.67;;;2.47;;
5608;SDS011;2826;51.354;9.588;2022-08-19T14:27:51;2.60;;;2.40;;
5608;SDS011;2826;51.354;9.588;2022-08-19T14:30:20;2.43;;;2.23;;
5608;SDS011;2826;51.354;9.588;2022-08-19T14:32:51;7.20;;;2.20;;
5608;SDS011;2826;51.354;9.588;2022-08-19T14:35:17;2.77;;;2.57;;
5608;SDS011;2826;51.354;9.588;2022-08-19T14:37:44;2.70;;;2.27;;
5608;SDS011;2826;51.354;9.588;2022-08-19T14:40:12;2.40;;;2.20;;
5608;SDS011;2826;51.354;9.588;2022-08-19T14:42:40;2.93;;;2.40;;
5608;SDS011;2826;51.354;9.588;2022-08-19T14:45:08;3.47;;;2.40;;
5608;SDS011;2826;51.354;9.588;2022-08-19T14:47:36;3.00;;;2.27;;
5608;SDS011;2826;51.354;9.588;2022-08-19T14:50:04;2.90;;;2.23;;
5608;SDS011;2826;51.354;9.588;2022-08-19T14:52:32;3.60;;;2.20;;
5608;SDS011;2826;51.354;9.588;2022-08-19T14:54:59;2.70;;;2.50;;
5608;SDS011;2826;51.354;9.588;2022-08-19T14:57:26;2.43;;;2.23;;
5608;SDS011;2826;51.354;9.588;2022-08-19T14:59:52;2.60;;;2.40;;
5608;SDS011;2826;51.354;9.588;2022-08-19T15:02:19;2.80;;;2.60;;
5608;SDS011;2826;51.354;9.588;2022-08-19T15:04:47;4.37;;;2.30;;
5608;SDS011;2826;51.354;9.588;2022-08-19T15:07:15;2.50;;;2.30;;
5608;SDS011;2826;51.354;9.588;2022-08-19T15:09:42;3.47;;;2.40;;
5608;SDS011;2826;51.354;9.588;2022-08-19T15:12:08;4.40;;;2.50;;